Time;durP1;ratioP1;P1;durP2;ratioP2;P2;SDS_P1;SDS_P2;PMS_P1;PMS_P2;Temp;Humidity;BMP_temperature;BMP_pressure;BME280_temperature;BME280_humidity;BME280_pressure;Samples;Min_cycle;Max_cycle;Signal;HPM_P1;HPM_P2
2022/07/24 00:02:07;;;;;;;11.88;9.77;;;;;;;19.87;62.63;98839.19;5053941;28;20048;-71
2022/07/24 00:04:33;;;;;;;11.02;9.60;;;;;;;19.86;62.77;98836.84;5051927;28;20444;-70
2022/07/24 00:06:59;;;;;;;12.13;9.75;;;;;;;19.87;62.52;98833.03;5052584;28;20071;-70
2022/07/24 00:09:25;;;;;;;10.52;9.20;;;;;;;19.88;62.75;98840.00;5051667;28;20033;-71
2022/07/24 00:11:50;;;;;;;10.25;9.23;;;;;;;19.89;62.76;98839.69;5052109;28;20072;-71
2022/07/24 00:14:16;;;;;;;13.18;9.82;;;;;;;19.85;62.78;98829.84;5053420;28;20049;-71
2022/07/24 00:16:42;;;;;;;11.25;9.80;;;;;;;19.80;63.22;98835.41;5054156;28;20048;-72
2022/07/24 00:19:08;;;;;;;12.45;9.73;;;;;;;19.76;63.55;98826.34;5053361;28;20048;-71
2022/07/24 00:21:33;;;;;;;10.30;9.20;;;;;;;19.72;64.04;98826.19;5053503;28;20123;-71
2022/07/24 00:23:59;;;;;;;12.07;8.68;;;;;;;19.68;63.76;98834.09;5035388;28;20039;-72
2022/07/24 00:26:25;;;;;;;11.20;9.30;;;;;;;19.66;64.10;98830.13;5053280;28;20037;-72
2022/07/24 00:28:51;;;;;;;10.05;8.73;;;;;;;19.63;63.96;98831.50;5052030;28;20178;-71
2022/07/24 00:31:17;;;;;;;9.43;8.52;;;;;;;19.62;63.85;98831.78;5052949;28;20465;-71
2022/07/24 00:33:42;;;;;;;10.00;8.57;;;;;;;19.59;64.16;98821.66;5053418;28;20051;-71
2022/07/24 00:36:08;;;;;;;8.35;7.43;;;;;;;19.57;63.61;98819.31;5052644;28;20049;-70
2022/07/24 00:38:34;;;;;;;10.75;8.93;;;;;;;19.56;64.30;98828.47;5051858;28;20126;-70
2022/07/24 00:41:00;;;;;;;10.45;8.65;;;;;;;19.54;64.13;98830.69;5052733;28;20076;-71
2022/07/24 00:43:25;;;;;;;11.18;9.35;;;;;;;19.50;64.24;98830.50;5052981;28;20041;-71
2022/07/24 00:45:51;;;;;;;10.07;9.07;;;;;;;19.46;64.45;98834.91;5053547;28;20045;-71
2022/07/24 00:48:17;;;;;;;11.68;9.85;;;;;;;19.43;64.73;98823.97;5051292;28;20056;-71
2022/07/24 00:50:43;;;;;;;12.13;9.98;;;;;;;19.39;64.97;98829.19;5051632;28;20165;-70
2022/07/24 00:53:10;;;;;;;12.90;9.48;;;;;;;19.33;65.30;98822.38;5053432;28;20072;-70
2022/07/24 00:55:36;;;;;;;13.05;9.70;;;;;;;19.31;65.15;98824.56;5051787;28;20474;-70
2022/07/24 00:58:02;;;;;;;12.50;9.25;;;;;;;19.27;65.27;98824.38;5051039;28;20083;-70
2022/07/24 01:00:28;;;;;;;13.35;9.02;;;;;;;19.26;65.38;98827.38;5068161;28;20127;-70
2022/07/24 01:02:54;;;;;;;9.57;8.60;;;;;;;19.24;65.25;98824.22;5052878;28;20119;-70
2022/07/24 01:05:20;;;;;;;10.10;9.00;;;;;;;19.21;65.43;98819.47;5051401;28;20413;-71
2022/07/24 01:07:46;;;;;;;12.13;9.43;;;;;;;19.21;65.40;98822.16;5051162;28;20040;-70
2022/07/24 01:10:11;;;;;;;14.05;9.23;;;;;;;19.19;65.70;98824.34;5051285;28;20036;-69
2022/07/24 01:12:38;;;;;;;11.48;9.10;;;;;;;19.14;65.91;98821.78;5052326;28;20045;-71
2022/07/24 01:15:07;;;;;;;11.30;9.07;;;;;;;19.13;66.13;98822.88;5052973;28;20086;-71
2022/07/24 01:17:34;;;;;;;10.73;9.63;;;;;;;19.14;65.90;98829.84;5052770;28;20099;-70
2022/07/24 01:20:00;;;;;;;11.98;9.43;;;;;;;19.16;66.00;98827.66;5067820;28;20037;-71
2022/07/24 01:22:26;;;;;;;13.15;10.05;;;;;;;19.17;66.03;98827.31;5050564;28;20059;-70
2022/07/24 01:24:53;;;;;;;12.40;9.25;;;;;;;19.20;66.01;98823.22;5051059;28;20087;-71
2022/07/24 01:27:20;;;;;;;10.98;9.80;;;;;;;19.25;66.03;98826.56;5052102;28;20053;-71
2022/07/24 01:29:46;;;;;;;10.68;9.63;;;;;;;19.28;66.04;98820.59;5051026;28;20549;-70
2022/07/24 01:32:12;;;;;;;13.73;10.13;;;;;;;19.35;65.98;98824.72;5051706;28;20095;-70
2022/07/24 01:34:37;;;;;;;13.32;10.38;;;;;;;19.43;65.47;98830.16;5052667;28;20095;-70
2022/07/24 01:37:03;;;;;;;13.23;10.30;;;;;;;19.52;65.11;98827.50;5052358;28;20033;-71
2022/07/24 01:39:29;;;;;;;14.70;9.98;;;;;;;19.63;64.68;98828.81;5050748;28;20056;-70
2022/07/24 01:41:54;;;;;;;15.75;10.07;;;;;;;19.73;64.41;98827.75;5051616;28;20451;-72
2022/07/24 01:44:20;;;;;;;13.20;9.95;;;;;;;19.72;64.13;98826.97;5050964;28;20048;-72
2022/07/24 01:46:46;;;;;;;9.02;8.10;;;;;;;19.77;63.20;98825.25;5050545;28;20053;-71
2022/07/24 01:49:11;;;;;;;9.93;9.02;;;;;;;19.85;63.26;98824.47;5067422;28;20045;-72
2022/07/24 01:51:37;;;;;;;11.60;9.25;;;;;;;19.84;63.44;98826.38;5051902;28;20090;-71
2022/07/24 01:54:03;;;;;;;10.77;9.23;;;;;;;19.86;63.28;98832.25;5051590;28;20438;-71
2022/07/24 01:56:30;;;;;;;11.68;9.35;;;;;;;20.08;62.70;98836.72;5050464;28;20116;-71
2022/07/24 01:58:56;;;;;;;10.27;9.18;;;;;;;20.33;61.95;98826.31;5051652;28;20510;-72
2022/07/24 02:01:21;;;;;;;9.57;8.50;;;;;;;20.51;61.12;98829.81;5050340;28;20396;-71
2022/07/24 02:03:48;;;;;;;12.15;9.10;;;;;;;20.56;61.19;98829.66;5051423;28;20406;-70
2022/07/24 02:06:14;;;;;;;10.52;8.95;;;;;;;20.77;60.37;98833.34;5052090;28;20044;-70
2022/07/24 02:08:40;;;;;;;13.40;9.45;;;;;;;21.08;59.77;98826.94;5066454;28;20102;-72
2022/07/24 02:11:06;;;;;;;12.43;9.07;;;;;;;21.36;58.85;98834.66;5051218;28;20120;-71
2022/07/24 02:13:31;;;;;;;10.10;9.00;;;;;;;21.66;57.98;98828.22;5050223;28;20052;-72
2022/07/24 02:15:57;;;;;;;11.98;8.95;;;;;;;21.90;57.32;98838.41;5050058;28;20037;-71
2022/07/24 02:18:23;;;;;;;9.90;8.85;;;;;;;22.05;57.12;98836.25;5066629;28;20064;-71
2022/07/24 02:20:49;;;;;;;11.48;9.43;;;;;;;22.20;56.00;98833.00;5066545;28;20044;-72
2022/07/24 02:23:17;;;;;;;9.95;8.90;;;;;;;22.26;55.88;98839.00;5049897;28;20135;-71
2022/07/24 02:25:47;;;;;;;9.55;8.40;;;;;;;22.51;55.27;98839.97;5051351;28;20040;-72
2022/07/24 02:28:13;;;;;;;9.18;8.25;;;;;;;22.77;53.67;98837.84;5050141;28;20612;-71
2022/07/24 02:30:39;;;;;;;15.00;8.57;;;;;;;22.93;53.61;98834.50;5049993;28;20124;-70
2022/07/24 02:33:05;;;;;;;8.82;8.00;;;;;;;23.27;52.12;98828.00;5051186;28;20041;-70
2022/07/24 02:35:30;;;;;;;8.98;7.65;;;;;;;23.31;52.44;98832.38;5066410;28;20048;-70
2022/07/24 02:37:56;;;;;;;10.80;8.60;;;;;;;23.02;53.08;98830.63;5051159;28;20056;-70
2022/07/24 02:40:22;;;;;;;12.35;8.48;;;;;;;22.73;54.29;98838.81;5049668;28;20048;-70
2022/07/24 02:42:47;;;;;;;9.65;8.25;;;;;;;22.46;54.39;98835.53;5049776;28;20510;-71
2022/07/24 02:45:13;;;;;;;11.57;8.70;;;;;;;22.66;54.15;98833.94;5051424;28;20467;-70
2022/07/24 02:47:50;;;;;;;9.57;8.52;;;;;;;23.26;53.58;98834.50;5066211;28;20118;-71
2022/07/24 02:50:17;;;;;;;9.45;7.78;;;;;;;23.82;52.00;98831.31;5031556;28;20041;-71
2022/07/24 02:52:43;;;;;;;9.68;8.48;;;;;;;24.26;50.46;98830.38;5035771;28;20490;-71
2022/07/24 02:55:09;;;;;;;9.55;8.55;;;;;;;24.59;49.98;98829.44;5050872;28;20052;-71
2022/07/24 02:57:35;;;;;;;12.45;9.43;;;;;;;25.02;48.90;98827.09;5050536;28;20593;-71
2022/07/24 03:00:03;;;;;;;8.95;7.72;;;;;;;25.29;47.66;98833.63;5050463;28;20052;-71
2022/07/24 03:02:29;;;;;;;10.35;8.27;;;;;;;25.64;47.17;98835.66;5033151;28;20045;-71
2022/07/24 03:04:55;;;;;;;10.43;7.53;;;;;;;25.86;46.18;98831.56;5049598;28;20433;-71
2022/07/24 03:07:20;;;;;;;11.75;9.60;;;;;;;26.09;45.81;98831.66;5050704;28;20045;-71
2022/07/24 03:09:46;;;;;;;16.63;12.48;;;;;;;26.26;44.79;98820.41;5049331;28;20045;-71
2022/07/24 03:12:12;;;;;;;9.30;7.57;;;;;;;26.47;44.49;98826.31;5065725;28;20075;-71
2022/07/24 03:14:38;;;;;;;7.75;6.60;;;;;;;26.67;44.20;98823.59;5050815;28;20033;-71
2022/07/24 03:17:04;;;;;;;7.22;6.53;;;;;;;26.88;43.18;98823.22;5066494;28;20051;-72
2022/07/24 03:19:29;;;;;;;8.68;7.25;;;;;;;27.07;43.73;98823.22;5050285;28;20037;-71
2022/07/24 03:21:55;;;;;;;7.15;6.45;;;;;;;27.20;42.54;98821.13;5066184;28;20135;-71
2022/07/24 03:24:21;;;;;;;6.43;5.75;;;;;;;27.34;42.17;98821.38;5050379;28;20132;-71
2022/07/24 03:26:46;;;;;;;6.38;5.78;;;;;;;27.51;41.57;98814.66;5066332;28;20055;-70
2022/07/24 03:29:12;;;;;;;6.43;5.88;;;;;;;27.57;41.39;98815.13;5048674;28;20033;-71
2022/07/24 03:31:38;;;;;;;6.43;5.82;;;;;;;27.67;41.00;98819.94;5050743;28;20072;-71
2022/07/24 03:34:04;;;;;;;6.28;5.47;;;;;;;27.79;40.66;98817.06;5051664;28;20033;-70
2022/07/24 03:36:29;;;;;;;7.72;6.13;;;;;;;27.91;40.52;98807.88;5055078;28;20056;-70
2022/07/24 03:38:55;;;;;;;6.32;5.72;;;;;;;28.00;39.84;98813.06;5054579;28;20528;-70
2022/07/24 03:41:20;;;;;;;6.75;5.75;;;;;;;28.13;40.16;98817.16;5054384;28;20049;-71
2022/07/24 03:43:46;;;;;;;8.63;6.38;;;;;;;28.19;39.68;98820.34;5054369;28;20049;-70
2022/07/24 03:46:12;;;;;;;9.30;6.78;;;;;;;28.19;39.98;98812.19;5054014;28;20194;-70
2022/07/24 03:48:37;;;;;;;7.65;6.72;;;;;;;28.20;40.23;98806.34;5052902;28;20056;-70
2022/07/24 03:51:03;;;;;;;7.93;6.50;;;;;;;28.24;40.16;98812.66;5052968;28;20072;-69
2022/07/24 03:53:29;;;;;;;12.95;10.63;;;;;;;28.15;40.23;98808.59;5054193;28;20103;-69
2022/07/24 03:55:54;;;;;;;9.93;7.35;;;;;;;28.23;40.11;98807.56;5053184;28;20044;-70
2022/07/24 03:58:20;;;;;;;8.93;7.25;;;;;;;28.24;40.30;98804.47;5052755;28;20044;-70
2022/07/24 04:00:46;;;;;;;11.43;7.43;;;;;;;28.38;40.17;98805.78;5054001;28;20514;-72
2022/07/24 04:03:12;;;;;;;8.45;7.63;;;;;;;28.49;39.78;98804.78;5052905;28;20037;-70
2022/07/24 04:05:37;;;;;;;7.57;6.72;;;;;;;28.63;39.47;98804.19;5054279;28;20041;-71
2022/07/24 04:08:03;;;;;;;8.57;7.55;;;;;;;28.75;39.80;98806.66;5068752;28;20498;-70
2022/07/24 04:10:29;;;;;;;12.98;7.63;;;;;;;28.87;39.11;98805.59;5053793;28;20037;-69
2022/07/24 04:12:54;;;;;;;12.32;7.53;;;;;;;28.95;39.28;98806.47;5054104;28;20502;-71
2022/07/24 04:15:20;;;;;;;10.15;7.43;;;;;;;29.01;39.14;98794.06;5053389;28;20053;-71
2022/07/24 04:17:46;;;;;;;9.40;7.78;;;;;;;29.09;39.20;98803.94;5053993;28;20039;-70
2022/07/24 04:20:13;;;;;;;10.25;7.43;;;;;;;29.16;39.25;98817.63;5054275;28;20456;-70
2022/07/24 04:22:39;;;;;;;10.32;8.07;;;;;;;29.27;38.92;98816.91;5053666;28;20048;-70
2022/07/24 04:25:05;;;;;;;9.15;7.65;;;;;;;29.42;39.09;98816.69;5036050;28;20049;-72
2022/07/24 04:27:31;;;;;;;9.18;7.88;;;;;;;29.44;38.94;98819.03;5052038;28;20525;-71
2022/07/24 04:29:57;;;;;;;11.95;7.88;;;;;;;29.52;38.71;98817.16;5068743;28;20033;-71
2022/07/24 04:32:24;;;;;;;10.27;8.30;;;;;;;29.59;38.88;98812.53;5053426;28;20173;-70
2022/07/24 04:34:50;;;;;;;12.93;7.95;;;;;;;29.68;38.70;98814.16;5053631;28;20040;-70
2022/07/24 04:37:16;;;;;;;11.02;7.75;;;;;;;29.80;38.74;98816.63;5053063;28;20041;-71
2022/07/24 04:39:42;;;;;;;8.77;7.40;;;;;;;29.80;38.63;98822.84;5053883;28;20068;-70
2022/07/24 04:42:07;;;;;;;8.50;7.65;;;;;;;29.86;38.80;98821.34;5053064;28;20037;-70
2022/07/24 04:44:33;;;;;;;8.63;7.72;;;;;;;29.91;39.12;98819.41;5053582;28;20076;-71
2022/07/24 04:46:59;;;;;;;9.40;8.20;;;;;;;29.99;38.26;98816.34;5052929;28;20041;-70
2022/07/24 04:49:24;;;;;;;12.13;7.65;;;;;;;30.07;37.89;98814.44;5052487;28;20045;-70
2022/07/24 04:51:50;;;;;;;8.00;7.20;;;;;;;30.11;38.08;98818.75;5053119;28;20183;-70
2022/07/24 04:54:16;;;;;;;8.00;7.03;;;;;;;30.17;37.63;98819.16;5051635;28;20045;-70
2022/07/24 04:56:42;;;;;;;7.70;6.82;;;;;;;30.25;37.59;98822.75;5053332;28;20033;-72
2022/07/24 04:59:07;;;;;;;10.00;7.55;;;;;;;30.30;38.04;98814.19;5052551;28;20052;-71
2022/07/24 05:01:33;;;;;;;9.18;6.95;;;;;;;30.28;37.74;98820.03;5052790;28;20049;-72
2022/07/24 05:03:59;;;;;;;8.10;7.07;;;;;;;30.33;37.61;98814.22;5068801;28;20406;-71
2022/07/24 05:06:24;;;;;;;9.55;7.65;;;;;;;30.22;38.02;98813.38;5068352;28;20080;-71
2022/07/24 05:08:50;;;;;;;10.40;7.68;;;;;;;29.87;38.68;98808.47;5050667;28;20071;-70
2022/07/24 05:11:16;;;;;;;10.05;7.30;;;;;;;29.60;39.28;98811.38;5052783;28;20049;-70
2022/07/24 05:13:42;;;;;;;11.20;6.68;;;;;;;29.43;39.41;98812.00;5051399;28;20094;-70
2022/07/24 05:16:08;;;;;;;10.65;7.10;;;;;;;29.11;40.47;98804.31;5052565;28;20044;-71
2022/07/24 05:18:33;;;;;;;9.07;6.85;;;;;;;29.01;40.47;98802.25;5051993;28;20055;-71
2022/07/24 05:20:59;;;;;;;8.38;6.30;;;;;;;28.92;40.96;98801.78;5053097;28;20063;-71
2022/07/24 05:23:25;;;;;;;8.57;6.95;;;;;;;28.84;40.75;98798.19;5052468;28;20502;-71
2022/07/24 05:25:50;;;;;;;7.10;6.40;;;;;;;28.83;41.21;98799.34;5051663;28;20047;-72
2022/07/24 05:28:16;;;;;;;9.30;6.43;;;;;;;28.74;41.48;98796.91;5051489;28;20079;-72
2022/07/24 05:30:42;;;;;;;8.60;6.07;;;;;;;28.59;41.48;98795.19;5053030;28;20517;-71
2022/07/24 05:33:08;;;;;;;7.82;6.28;;;;;;;28.45;41.04;98793.06;5067518;28;20049;-71
2022/07/24 05:35:33;;;;;;;6.22;5.38;;;;;;;28.33;41.15;98792.50;5052787;28;20072;-71
2022/07/24 05:37:59;;;;;;;8.13;5.90;;;;;;;28.19;41.66;98790.38;5067396;28;20049;-71
2022/07/24 05:40:25;;;;;;;7.85;5.90;;;;;;;28.06;41.93;98793.34;5051373;28;20498;-70
2022/07/24 05:42:51;;;;;;;9.05;5.63;;;;;;;27.94;41.88;98790.03;5051855;28;20099;-71
2022/07/24 05:45:16;;;;;;;6.72;5.88;;;;;;;27.86;42.30;98794.59;5051037;28;20411;-71
2022/07/24 05:47:42;;;;;;;7.47;5.75;;;;;;;27.77;42.35;98791.34;5051786;28;20049;-69
2022/07/24 05:50:12;;;;;;;6.75;5.57;;;;;;;27.68;42.11;98786.16;5052051;28;20041;-71
2022/07/24 05:52:38;;;;;;;;;;;;;;;27.63;42.84;98794.63;5052522;28;20421;-70
2022/07/24 05:55:04;;;;;;;7.80;5.70;;;;;;;27.56;43.21;98791.78;5051765;28;19927;-71
2022/07/24 05:57:30;;;;;;;6.60;5.93;;;;;;;27.55;43.61;98785.53;5033563;28;20045;-72
2022/07/24 05:59:56;;;;;;;7.93;6.50;;;;;;;27.50;43.96;98788.59;5018089;28;20091;-72
2022/07/24 06:02:21;;;;;;;7.38;6.68;;;;;;;27.45;44.63;98790.84;5034793;28;20052;-72
2022/07/24 06:04:47;;;;;;;8.82;7.93;;;;;;;27.42;44.53;98786.13;5051902;28;20045;-72
2022/07/24 06:07:13;;;;;;;7.15;5.95;;;;;;;27.40;44.12;98781.03;5051128;28;20368;-72
2022/07/24 06:09:39;;;;;;;6.00;5.45;;;;;;;27.28;43.98;98773.84;5050390;28;20132;-71
2022/07/24 06:12:05;;;;;;;6.32;5.60;;;;;;;27.28;43.61;98782.00;5033611;28;20045;-71
2022/07/24 06:14:31;;;;;;;5.90;5.32;;;;;;;27.27;43.04;98779.66;5051162;28;20398;-71
2022/07/24 06:16:57;;;;;;;5.97;5.15;;;;;;;27.21;43.50;98779.19;5050548;28;20049;-71
2022/07/24 06:19:23;;;;;;;6.68;5.28;;;;;;;27.17;43.89;98781.81;5049109;28;20490;-72
2022/07/24 06:21:49;;;;;;;8.10;5.47;;;;;;;27.19;43.04;98776.03;5031699;28;20042;-71
2022/07/24 06:24:14;;;;;;;5.72;5.07;;;;;;;27.16;43.15;98774.81;5036623;28;20186;-72
2022/07/24 06:26:40;;;;;;;5.22;4.72;;;;;;;27.12;43.19;98773.16;5016766;28;20047;-72
2022/07/24 06:29:06;;;;;;;6.40;4.97;;;;;;;27.12;43.08;98775.88;5049221;28;20041;-73
2022/07/24 06:31:31;;;;;;;5.78;5.00;;;;;;;27.10;42.87;98772.75;5049514;28;20040;-72
2022/07/24 06:33:57;;;;;;;4.78;4.38;;;;;;;27.05;42.89;98770.31;5050846;28;20048;-73
2022/07/24 06:36:23;;;;;;;6.30;5.70;;;;;;;27.04;42.69;98774.19;5049743;28;20041;-70
2022/07/24 06:38:48;;;;;;;6.03;5.43;;;;;;;27.05;43.61;98776.53;5066701;28;20057;-72
2022/07/24 06:41:14;;;;;;;5.65;5.07;;;;;;;27.12;43.94;98768.50;5050151;28;20037;-72
2022/07/24 06:43:40;;;;;;;7.53;5.60;;;;;;;27.14;44.53;98770.84;5051167;28;20072;-70
2022/07/24 06:46:06;;;;;;;5.13;4.63;;;;;;;27.13;43.86;98761.91;5051419;28;20053;-72
2022/07/24 06:48:32;;;;;;;5.72;4.72;;;;;;;27.16;44.17;98757.72;5049642;28;20422;-71
2022/07/24 06:50:58;;;;;;;8.55;5.40;;;;;;;27.24;43.77;98759.41;5016356;28;20037;-72
2022/07/24 06:53:24;;;;;;;5.50;5.00;;;;;;;27.33;43.39;98754.50;5050928;28;20051;-70
2022/07/24 06:55:53;;;;;;;11.05;4.90;;;;;;;27.21;43.80;98749.25;5049764;28;20048;-70
2022/07/24 06:58:19;;;;;;;10.93;5.38;;;;;;;27.36;43.97;98753.78;5050062;28;20091;-69
2022/07/24 07:00:46;;;;;;;5.07;4.57;;;;;;;27.49;42.57;98748.13;5051293;28;20561;-68
2022/07/24 07:03:11;;;;;;;5.93;5.25;;;;;;;27.57;42.66;98749.81;5049763;28;20055;-74
2022/07/24 07:05:37;;;;;;;6.07;4.88;;;;;;;27.61;42.32;98742.47;5049843;28;20037;-69
2022/07/24 07:08:03;;;;;;;6.13;4.60;;;;;;;27.67;41.75;98738.28;5051587;28;20048;-71
2022/07/24 07:10:29;;;;;;;5.60;4.97;;;;;;;27.70;39.76;98734.81;5054886;28;20029;-71
2022/07/24 07:12:55;;;;;;;5.82;5.22;;;;;;;27.77;41.45;98734.16;5070071;28;20051;-71
2022/07/24 07:15:20;;;;;;;5.57;5.07;;;;;;;27.78;41.33;98733.00;5054861;28;20075;-72
2022/07/24 07:17:46;;;;;;;6.07;4.60;;;;;;;27.87;40.70;98730.03;5070473;28;20045;-71
2022/07/24 07:20:13;;;;;;;6.38;4.57;;;;;;;27.90;40.04;98729.28;5053817;28;20076;-71
2022/07/24 07:22:39;;;;;;;6.43;5.47;;;;;;;27.91;39.62;98726.19;5069421;28;20052;-71
2022/07/24 07:25:06;;;;;;;6.82;4.63;;;;;;;27.93;39.90;98728.53;5051761;28;20478;-70
2022/07/24 07:27:31;;;;;;;12.43;5.38;;;;;;;27.99;41.20;98724.34;5049223;28;20144;-73
2022/07/24 07:29:57;;;;;;;7.47;5.65;;;;;;;27.97;39.93;98724.72;5052537;28;20119;-72
2022/07/24 07:32:23;;;;;;;5.57;4.78;;;;;;;27.95;38.28;98726.25;5053758;28;20485;-72
2022/07/24 07:34:49;;;;;;;4.93;4.50;;;;;;;27.82;38.49;98733.84;5054532;28;20041;-70
2022/07/24 07:37:14;;;;;;;6.00;4.30;;;;;;;27.81;39.30;98733.06;5053954;28;20048;-69
2022/07/24 07:39:40;;;;;;;4.53;4.13;;;;;;;27.87;38.35;98722.63;5069348;28;20468;-72
2022/07/24 07:42:06;;;;;;;5.95;4.60;;;;;;;27.78;39.19;98733.00;5053622;28;20045;-71
2022/07/24 07:44:32;;;;;;;4.88;4.38;;;;;;;27.83;39.29;98730.75;5052187;28;20049;-72
2022/07/24 07:46:58;;;;;;;5.00;4.30;;;;;;;27.82;39.37;98725.66;5035912;28;20084;-73
2022/07/24 07:49:23;;;;;;;8.18;4.55;;;;;;;27.88;39.37;98717.97;5069045;28;20072;-72
2022/07/24 07:51:51;;;;;;;5.43;3.90;;;;;;;27.79;38.54;98718.25;5053646;28;20041;-71
2022/07/24 07:54:17;;;;;;;4.13;3.80;;;;;;;27.86;37.90;98723.81;5069308;28;20056;-69
2022/07/24 07:56:44;;;;;;;6.05;4.25;;;;;;;27.91;38.76;98728.13;5052051;28;20033;-73
2022/07/24 07:59:10;;;;;;;4.78;4.45;;;;;;;27.99;38.36;98721.63;5052311;28;20557;-74
2022/07/24 08:01:35;;;;;;;5.00;4.20;;;;;;;28.05;38.74;98718.19;5053506;28;20045;-74
2022/07/24 08:04:01;;;;;;;4.30;4.00;;;;;;;28.12;38.60;98722.97;5052539;28;20037;-68
2022/07/24 08:06:27;;;;;;;7.55;4.30;;;;;;;27.97;38.93;98726.66;5051653;28;20041;-69
2022/07/24 08:08:53;;;;;;;4.80;4.13;;;;;;;27.97;39.60;98719.28;5035003;28;20052;-73
2022/07/24 08:11:19;;;;;;;4.63;4.22;;;;;;;28.19;38.79;98723.03;5051998;28;20194;-72
2022/07/24 08:13:45;;;;;;;5.45;4.22;;;;;;;28.39;39.10;98717.44;5034997;28;20041;-69
2022/07/24 08:16:11;;;;;;;4.63;4.07;;;;;;;28.38;37.72;98713.13;5053489;28;20455;-75
2022/07/24 08:18:37;;;;;;;4.30;3.90;;;;;;;28.26;39.02;98714.94;5051705;28;20049;-74
2022/07/24 08:21:04;;;;;;;8.07;4.30;;;;;;;28.02;38.99;98709.97;5058257;28;20053;-72
2022/07/24 08:23:29;;;;;;;5.72;4.47;;;;;;;28.04;39.45;98705.75;5051550;28;20050;-68
2022/07/24 08:25:55;;;;;;;5.03;4.45;;;;;;;28.19;39.07;98706.69;5052610;28;20053;-70
2022/07/24 08:28:22;;;;;;;13.95;4.68;;;;;;;28.26;38.69;98701.31;5053152;28;20057;-70
2022/07/24 08:30:49;;;;;;;5.60;4.57;;;;;;;28.28;39.03;98699.00;5053983;28;20456;-70
2022/07/24 08:33:15;;;;;;;6.13;4.32;;;;;;;28.29;38.37;98700.56;5053211;28;20040;-69
2022/07/24 08:35:41;;;;;;;11.55;4.32;;;;;;;28.27;37.69;98693.94;5053510;28;20041;-69
2022/07/24 08:38:07;;;;;;;4.60;4.20;;;;;;;28.26;36.22;98693.13;5053115;28;20064;-70
2022/07/24 08:40:38;;;;;;;4.68;4.25;;;;;;;28.25;36.64;98696.25;5053979;28;20040;-70
2022/07/24 08:43:07;;;;;;;4.47;4.07;;;;;;;28.36;37.33;98690.94;5053268;28;20132;-70
2022/07/24 08:45:41;;;;;;;5.10;4.40;;;;;;;28.40;38.00;98681.63;5053802;28;20045;-70
2022/07/24 08:48:10;;;;;;;4.93;4.43;;;;;;;28.42;37.56;98679.34;5053402;28;20052;-69
2022/07/24 08:50:39;;;;;;;5.50;4.38;;;;;;;28.36;37.74;98686.25;5053358;28;20072;-70
2022/07/24 08:53:06;;;;;;;5.03;4.55;;;;;;;28.29;38.92;98684.22;5051720;28;20071;-70
2022/07/24 08:55:32;;;;;;;5.85;5.30;;;;;;;28.24;38.98;98684.56;5053513;28;20482;-70
2022/07/24 08:57:59;;;;;;;5.63;5.03;;;;;;;28.14;38.38;98689.88;5051917;28;20045;-70
2022/07/24 09:00:26;;;;;;;5.32;4.88;;;;;;;28.18;39.26;98682.53;5068792;28;20044;-69
2022/07/24 09:02:52;;;;;;;5.55;4.22;;;;;;;28.22;37.55;98673.25;5068646;28;20087;-69
2022/07/24 09:05:18;;;;;;;4.53;4.20;;;;;;;28.30;37.96;98685.81;5052625;28;20049;-69
2022/07/24 09:07:43;;;;;;;4.68;4.28;;;;;;;28.40;37.91;98681.63;5051953;28;20068;-69
2022/07/24 09:10:12;;;;;;;4.25;3.95;;;;;;;28.43;37.15;98680.13;5034819;28;20433;-69
2022/07/24 09:12:41;;;;;;;6.10;4.22;;;;;;;28.46;37.08;98679.38;5051441;28;20041;-70
2022/07/24 09:15:12;;;;;;;6.18;4.20;;;;;;;28.50;37.07;98672.00;5034818;28;20041;-70
2022/07/24 09:17:48;;;;;;;5.38;4.50;;;;;;;28.52;36.84;98678.66;5051569;28;20409;-70
2022/07/24 09:20:13;;;;;;;4.70;3.88;;;;;;;28.58;37.02;98678.31;5052994;28;20037;-69
2022/07/24 09:22:40;;;;;;;4.60;4.20;;;;;;;28.61;36.44;98667.44;5053022;28;20041;-70
2022/07/24 09:25:12;;;;;;;4.35;3.92;;;;;;;28.64;36.25;98676.81;5052938;28;20407;-70
2022/07/24 09:27:51;;;;;;;4.63;4.22;;;;;;;28.62;36.62;98671.75;5051113;28;20045;-69
2022/07/24 09:30:41;;;;;;;5.10;4.38;;;;;;;28.54;36.02;98670.09;5052197;28;20052;-70
2022/07/24 09:33:15;;;;;;;4.88;4.47;;;;;;;28.57;35.72;98674.03;5052169;28;20049;-70
2022/07/24 09:35:46;;;;;;;4.53;4.13;;;;;;;28.59;36.38;98674.41;5051007;28;20064;-70
2022/07/24 09:38:22;;;;;;;4.68;4.20;;;;;;;28.60;36.86;98673.28;5052336;28;20048;-70
2022/07/24 09:40:51;;;;;;;5.70;4.35;;;;;;;28.47;37.29;98667.28;5052134;28;20457;-68
2022/07/24 09:43:21;;;;;;;7.25;6.18;;;;;;;28.35;36.87;98678.44;5052252;28;20132;-70
2022/07/24 09:45:52;;;;;;;4.72;4.10;;;;;;;28.35;36.66;98676.50;5052598;28;20068;-70
2022/07/24 09:48:21;;;;;;;4.50;4.10;;;;;;;28.41;36.58;98674.22;5052039;28;20049;-70
2022/07/24 09:50:51;;;;;;;4.63;4.22;;;;;;;28.39;37.48;98668.38;5052213;28;20047;-70
2022/07/24 09:53:22;;;;;;;4.63;4.22;;;;;;;28.29;37.59;98667.88;5052121;28;20086;-70
2022/07/24 09:56:04;;;;;;;7.00;4.68;;;;;;;28.15;37.29;98667.72;5051802;28;20498;-69
2022/07/24 09:58:31;;;;;;;5.18;4.68;;;;;;;28.07;37.42;98674.25;5052042;28;20063;-69
2022/07/24 10:01:00;;;;;;;6.55;5.57;;;;;;;28.16;37.53;98672.00;5052246;28;20052;-71
2022/07/24 10:03:29;;;;;;;7.03;4.30;;;;;;;28.26;37.50;98676.00;5050550;28;20140;-71
2022/07/24 10:05:58;;;;;;;5.78;4.35;;;;;;;28.38;36.62;98675.75;5052309;28;20095;-70
2022/07/24 10:08:25;;;;;;;6.30;3.83;;;;;;;28.45;36.38;98664.19;5051695;28;20053;-70
2022/07/24 10:10:51;;;;;;;5.00;4.18;;;;;;;28.51;37.19;98659.94;5050184;28;20043;-70
2022/07/24 10:13:17;;;;;;;4.43;3.97;;;;;;;28.57;37.16;98658.44;5050123;28;20151;-72
2022/07/24 10:16:11;;;;;;;7.78;4.20;;;;;;;28.55;36.21;98662.72;5033620;28;20043;-70
2022/07/24 10:18:42;;;;;;;5.13;4.07;;;;;;;28.30;36.38;98660.50;5044269;28;20067;-71
2022/07/24 10:21:18;;;;;;;5.90;4.32;;;;;;;28.25;36.98;98661.59;5051169;28;20064;-70
2022/07/24 10:24:03;;;;;;;5.47;4.32;;;;;;;28.27;36.69;98653.84;5034054;28;20383;-72
2022/07/24 10:26:43;;;;;;;4.13;3.70;;;;;;;28.11;36.42;98653.28;5050199;28;20049;-71
2022/07/24 10:29:23;;;;;;;6.60;4.47;;;;;;;28.16;35.68;98655.66;5050202;28;20052;-71
2022/07/24 10:31:51;;;;;;;4.50;4.10;;;;;;;28.26;36.48;98646.81;5051334;28;20140;-72
2022/07/24 10:34:42;;;;;;;4.60;4.20;;;;;;;28.43;36.57;98634.56;5051541;28;20040;-71
2022/07/24 10:37:20;;;;;;;5.75;3.85;;;;;;;28.62;36.17;98630.03;5031487;28;20056;-71
2022/07/24 10:39:49;;;;;;;4.18;3.83;;;;;;;28.63;35.45;98635.13;5051736;28;20057;-71
2022/07/24 10:42:15;;;;;;;8.30;4.30;;;;;;;28.62;35.46;98638.22;5051205;28;20064;-71
2022/07/24 10:44:41;;;;;;;4.60;4.20;;;;;;;28.47;35.91;98637.31;5051335;28;20045;-70
2022/07/24 10:47:12;;;;;;;6.10;4.18;;;;;;;28.49;36.73;98633.06;5049780;28;20053;-71
2022/07/24 10:49:45;;;;;;;7.28;4.25;;;;;;;28.66;37.09;98630.88;5051518;28;20040;-70
2022/07/24 10:52:32;;;;;;;6.13;4.05;;;;;;;28.96;35.42;98627.97;5050640;28;20486;-70
2022/07/24 10:55:26;;;;;;;4.47;4.07;;;;;;;29.15;35.58;98626.97;5051412;28;20064;-70
2022/07/24 10:57:59;;;;;;;4.63;3.95;;;;;;;29.21;34.70;98620.00;5051065;28;20132;-71
2022/07/24 11:00:36;;;;;;;4.47;4.07;;;;;;;29.22;34.73;98623.53;5049912;28;20053;-70
2022/07/24 11:03:05;;;;;;;7.75;4.40;;;;;;;29.21;35.02;98617.28;5049774;28;20082;-70
2022/07/24 11:05:34;;;;;;;5.55;3.95;;;;;;;29.11;34.66;98613.31;5051426;28;20174;-70
2022/07/24 11:08:12;;;;;;;4.30;3.90;;;;;;;29.04;35.71;98613.28;5050961;28;20050;-70
2022/07/24 11:10:51;;;;;;;4.18;3.78;;;;;;;29.01;35.52;98605.81;5033392;28;20099;-70
2022/07/24 11:13:32;;;;;;;3.95;3.53;;;;;;;28.90;34.53;98607.69;5050653;28;20045;-71
2022/07/24 11:16:10;;;;;;;4.25;3.83;;;;;;;28.87;34.58;98606.50;5050955;28;20418;-71
2022/07/24 11:18:56;;;;;;;4.47;3.60;;;;;;;28.83;34.48;98597.50;5049457;28;20063;-71
2022/07/24 11:21:41;;;;;;;4.00;3.70;;;;;;;28.84;34.75;98601.00;5028984;28;20081;-70
2022/07/24 11:24:14;;;;;;;9.27;3.92;;;;;;;28.81;35.12;98597.09;5050722;28;20045;-71
2022/07/24 11:26:45;;;;;;;4.68;4.07;;;;;;;28.67;36.01;98594.25;5050847;28;20417;-71
2022/07/24 11:29:29;;;;;;;4.05;3.75;;;;;;;28.60;35.92;98595.00;5050309;28;20418;-70
2022/07/24 11:32:07;;;;;;;5.72;3.75;;;;;;;28.55;36.23;98592.59;5049601;28;20056;-71
2022/07/24 11:34:35;;;;;;;3.97;3.67;;;;;;;28.56;36.12;98585.19;5015156;28;20072;-70